Hozan Maru — JL6681 — position and weather

sailwx.info

Track history (hours):
 
Tides and Currents Weather Stations Pressure Air Temp Water Temp Dewpoint Dewpoint Depression Visibility Wind Speed Wind Dir Waves Ship Positions

Hozan Maru

Last reported at 2017-Sep-19 12:06 UTC. Time now 2017-Sep-22 08:17 UTC.
Position N 34°37' E 134°55'.

Length 70 m; draft 4.8 m.

Type: Tanker. MMSI: 431501711.

Date/timePositionNaut miles runAvg speedWind from/ knotsBaromVisibWave heightAir tempDewpointWater temp
2017-Sep-19 12:06N 34°37' E 134°55'213.1
2017-Sep-19 11:59N 34°37' E 134°56'713.7
2017-Sep-19 11:30N 34°36' E 135°04'612.0
2017-Sep-19 10:59N 34°30' E 135°03'1412.4
2017-Sep-19 09:51N 34°16' E 135°01'512.7
2017-Sep-19 09:29N 34°12' E 135°04'611.5
2017-Sep-19 09:00N 34°07' E 135°07'0 0.4
2017-Sep-19 08:26N 34°07' E 135°07'0 0.0
2017-Sep-19 08:00N 34°07' E 135°07'0 0.0
2017-Sep-19 07:29N 34°07' E 135°07'0 0.0
2017-Sep-19 06:55N 34°07' E 135°07'1 0.7
2017-Sep-19 06:01N 34°08' E 135°07'0 2.4
2017-Sep-19 06:00N 34°08' E 135°07'611.0
2017-Sep-19 05:29N 34°13' E 135°04'612.4
2017-Sep-19 05:00N 34°19' E 135°04'713.6
2017-Sep-19 04:30N 34°26' E 135°03'713.7
2017-Sep-19 04:00N 34°32' E 135°04'9 0.5
2017-Sep-18 12:23N 34°37' E 134°55'513.8
2017-Sep-18 12:00N 34°37' E 135°01'611.1
2017-Sep-18 11:30N 34°32' E 135°04'1812.4
2017-Sep-18 10:04N 34°15' E 135°01'113.7
2017-Sep-18 10:00N 34°14' E 135°02'612.8
2017-Sep-18 09:30N 34°09' E 135°06'2 3.2
2017-Sep-18 08:47N 34°07' E 135°07'0 0.0
2017-Sep-18 08:29N 34°07' E 135°07'0 0.0
2017-Sep-18 07:58N 34°07' E 135°07'0 0.0
2017-Sep-18 07:29N 34°07' E 135°07'0 0.0
2017-Sep-18 06:42N 34°07' E 135°07'0 0.0
2017-Sep-18 06:29N 34°07' E 135°07'0 0.0
2017-Sep-18 06:00N 34°07' E 135°07'3 6.0
2017-Sep-18 05:30N 34°10' E 135°06'712.4
2017-Sep-18 04:58N 34°16' E 135°03'613.3
2017-Sep-18 04:30N 34°22' E 135°03'713.4
2017-Sep-18 03:58N 34°29' E 135°04'714.5
2017-Sep-18 03:30N 34°36' E 135°03'7 0.1
2017-Sep-16 07:48N 34°37' E 134°55'514.4
2017-Sep-16 07:27N 34°37' E 135°01'511.1
2017-Sep-16 07:00N 34°33' E 135°04'31 0.7
2017-Sep-14 08:21N 34°03' E 135°00'411.2
2017-Sep-14 08:00N 34°07' E 134°59'511.1
2017-Sep-14 07:30N 34°12' E 134°59'17 9.3
2017-Sep-14 05:39N 34°27' E 135°10'211.3
2017-Sep-14 05:30N 34°28' E 135°12'611.4
2017-Sep-14 04:59N 34°31' E 135°18'611.0
2017-Sep-14 04:29N 34°33' E 135°24'1 2.1
2017-Sep-14 03:55N 34°33' E 135°26'0 0.0
2017-Sep-14 03:30N 34°33' E 135°26'0 0.0
2017-Sep-14 03:00N 34°33' E 135°26'0 0.0
2017-Sep-14 01:42N 34°33' E 135°26'0 0.0
2017-Sep-14 01:24N 34°33' E 135°26'0 0.0
2017-Sep-14 00:58N 34°33' E 135°26'0 0.0
2017-Sep-14 00:29N 34°33' E 135°26'0 0.0
2017-Sep-14 00:00N 34°33' E 135°26'0 0.0
2017-Sep-13 23:31N 34°33' E 135°26'0 0.0
2017-Sep-13 23:00N 34°33' E 135°26'0 0.0
2017-Sep-13 22:31N 34°33' E 135°26'0 0.0
2017-Sep-13 22:00N 34°33' E 135°26'2 3.4
2017-Sep-13 21:28N 34°32' E 135°24'1 1.2
2017-Sep-13 20:58N 34°31' E 135°24'0 0.0
2017-Sep-13 06:23N 34°31' E 135°24'4 9.1
2017-Sep-13 05:55N 34°34' E 135°21'512.0
2017-Sep-13 05:30N 34°37' E 135°16'0 0.1
2017-Sep-13 05:00N 34°37' E 135°16'4 7.1
2017-Sep-13 04:30N 34°35' E 135°12'612.7
2017-Sep-13 04:00N 34°35' E 135°04'8 0.5
2017-Sep-12 11:53N 34°37' E 134°54'511.7
2017-Sep-12 11:29N 34°38' E 135°00'5 9.6
2017-Sep-12 11:00N 34°36' E 135°05'611.5
2017-Sep-12 10:30N 34°36' E 135°12'611.4
2017-Sep-12 10:00N 34°35' E 135°19'611.3
2017-Sep-12 09:30N 34°33' E 135°26'0 0.1
2017-Sep-12 05:41N 34°34' E 135°26'1 5.0
2017-Sep-12 05:30N 34°33' E 135°25'510.9
2017-Sep-12 05:00N 34°33' E 135°18'510.5
2017-Sep-12 04:30N 34°34' E 135°12'713.5
2017-Sep-12 04:00N 34°35' E 135°04'8 0.4
2017-Sep-11 10:10N 34°37' E 134°55'211.0
2017-Sep-11 10:00N 34°37' E 134°57'5 9.5
2017-Sep-11 09:30N 34°37' E 135°02'5 9.3
2017-Sep-11 09:00N 34°36' E 135°08'511.0
2017-Sep-11 08:30N 34°36' E 135°15'611.4
2017-Sep-11 07:59N 34°34' E 135°21'4 1.1
2017-Sep-11 04:51N 34°33' E 135°26'2 5.2
2017-Sep-11 04:29N 34°33' E 135°23'613.0
2017-Sep-11 03:59N 34°34' E 135°16'713.7
2017-Sep-11 03:30N 34°35' E 135°08'611.1
2017-Sep-11 02:59N 34°37' E 135°01'  
Track history (hours):
 
Tides and Currents Weather Stations Pressure Air Temp Water Temp Dewpoint Dewpoint Depression Visibility Wind Speed Wind Dir Waves Ship Positions

Hozan Maru

Last reported at 2017-Sep-19 12:06 UTC. Time now 2017-Sep-22 08:17 UTC.
Position N 34°37' E 134°55'.

Length 70 m; draft 4.8 m.

Type: Tanker. MMSI: 431501711.

Date/timePositionNaut miles runAvg speedWind from/ knotsBaromVisibWave heightAir tempDewpointWater temp
2017-Sep-19 12:06N 34°37' E 134°55'213.1
2017-Sep-19 11:59N 34°37' E 134°56'713.7
2017-Sep-19 11:30N 34°36' E 135°04'612.0
2017-Sep-19 10:59N 34°30' E 135°03'1412.4
2017-Sep-19 09:51N 34°16' E 135°01'512.7
2017-Sep-19 09:29N 34°12' E 135°04'611.5
2017-Sep-19 09:00N 34°07' E 135°07'0 0.4
2017-Sep-19 08:26N 34°07' E 135°07'0 0.0
2017-Sep-19 08:00N 34°07' E 135°07'0 0.0
2017-Sep-19 07:29N 34°07' E 135°07'0 0.0
2017-Sep-19 06:55N 34°07' E 135°07'1 0.7
2017-Sep-19 06:01N 34°08' E 135°07'0 2.4
2017-Sep-19 06:00N 34°08' E 135°07'611.0
2017-Sep-19 05:29N 34°13' E 135°04'612.4
2017-Sep-19 05:00N 34°19' E 135°04'713.6
2017-Sep-19 04:30N 34°26' E 135°03'713.7
2017-Sep-19 04:00N 34°32' E 135°04'9 0.5
2017-Sep-18 12:23N 34°37' E 134°55'513.8
2017-Sep-18 12:00N 34°37' E 135°01'611.1
2017-Sep-18 11:30N 34°32' E 135°04'1812.4
2017-Sep-18 10:04N 34°15' E 135°01'113.7
2017-Sep-18 10:00N 34°14' E 135°02'612.8
2017-Sep-18 09:30N 34°09' E 135°06'2 3.2
2017-Sep-18 08:47N 34°07' E 135°07'0 0.0
2017-Sep-18 08:29N 34°07' E 135°07'0 0.0
2017-Sep-18 07:58N 34°07' E 135°07'0 0.0
2017-Sep-18 07:29N 34°07' E 135°07'0 0.0
2017-Sep-18 06:42N 34°07' E 135°07'0 0.0
2017-Sep-18 06:29N 34°07' E 135°07'0 0.0
2017-Sep-18 06:00N 34°07' E 135°07'3 6.0
2017-Sep-18 05:30N 34°10' E 135°06'712.4
2017-Sep-18 04:58N 34°16' E 135°03'613.3
2017-Sep-18 04:30N 34°22' E 135°03'713.4
2017-Sep-18 03:58N 34°29' E 135°04'714.5
2017-Sep-18 03:30N 34°36' E 135°03'7 0.1
2017-Sep-16 07:48N 34°37' E 134°55'514.4
2017-Sep-16 07:27N 34°37' E 135°01'511.1
2017-Sep-16 07:00N 34°33' E 135°04'31 0.7
2017-Sep-14 08:21N 34°03' E 135°00'411.2
2017-Sep-14 08:00N 34°07' E 134°59'511.1
2017-Sep-14 07:30N 34°12' E 134°59'17 9.3
2017-Sep-14 05:39N 34°27' E 135°10'211.3
2017-Sep-14 05:30N 34°28' E 135°12'611.4
2017-Sep-14 04:59N 34°31' E 135°18'611.0
2017-Sep-14 04:29N 34°33' E 135°24'1 2.1
2017-Sep-14 03:55N 34°33' E 135°26'0 0.0
2017-Sep-14 03:30N 34°33' E 135°26'0 0.0
2017-Sep-14 03:00N 34°33' E 135°26'0 0.0
2017-Sep-14 01:42N 34°33' E 135°26'0 0.0
2017-Sep-14 01:24N 34°33' E 135°26'0 0.0
2017-Sep-14 00:58N 34°33' E 135°26'0 0.0
2017-Sep-14 00:29N 34°33' E 135°26'0 0.0
2017-Sep-14 00:00N 34°33' E 135°26'0 0.0
2017-Sep-13 23:31N 34°33' E 135°26'0 0.0
2017-Sep-13 23:00N 34°33' E 135°26'0 0.0
2017-Sep-13 22:31N 34°33' E 135°26'0 0.0
2017-Sep-13 22:00N 34°33' E 135°26'2 3.4
2017-Sep-13 21:28N 34°32' E 135°24'1 1.2
2017-Sep-13 20:58N 34°31' E 135°24'0 0.0
2017-Sep-13 06:23N 34°31' E 135°24'4 9.1
2017-Sep-13 05:55N 34°34' E 135°21'512.0
2017-Sep-13 05:30N 34°37' E 135°16'0 0.1
2017-Sep-13 05:00N 34°37' E 135°16'4 7.1
2017-Sep-13 04:30N 34°35' E 135°12'612.7
2017-Sep-13 04:00N 34°35' E 135°04'8 0.5
2017-Sep-12 11:53N 34°37' E 134°54'511.7
2017-Sep-12 11:29N 34°38' E 135°00'5 9.6
2017-Sep-12 11:00N 34°36' E 135°05'611.5
2017-Sep-12 10:30N 34°36' E 135°12'611.4
2017-Sep-12 10:00N 34°35' E 135°19'611.3
2017-Sep-12 09:30N 34°33' E 135°26'0 0.1
2017-Sep-12 05:41N 34°34' E 135°26'1 5.0
2017-Sep-12 05:30N 34°33' E 135°25'510.9
2017-Sep-12 05:00N 34°33' E 135°18'510.5
2017-Sep-12 04:30N 34°34' E 135°12'713.5
2017-Sep-12 04:00N 34°35' E 135°04'8 0.4
2017-Sep-11 10:10N 34°37' E 134°55'211.0
2017-Sep-11 10:00N 34°37' E 134°57'5 9.5
2017-Sep-11 09:30N 34°37' E 135°02'5 9.3
2017-Sep-11 09:00N 34°36' E 135°08'511.0
2017-Sep-11 08:30N 34°36' E 135°15'611.4
2017-Sep-11 07:59N 34°34' E 135°21'4 1.1
2017-Sep-11 04:51N 34°33' E 135°26'2 5.2
2017-Sep-11 04:29N 34°33' E 135°23'613.0
2017-Sep-11 03:59N 34°34' E 135°16'713.7
2017-Sep-11 03:30N 34°35' E 135°08'611.1
2017-Sep-11 02:59N 34°37' E 135°01'  

Dump ship's entire track history